Time;durP1;ratioP1;P1;durP2;ratioP2;P2;SDS_P1;SDS_P2;PMS_P1;PMS_P2;Temp;Humidity;BMP_temperature;BMP_pressure;BME280_temperature;BME280_humidity;BME280_pressure;Samples;Min_cycle;Max_cycle;Signal;HPM_P1;HPM_P2
2022/10/26 00:02:00;;;;;;;0.30;0.30;;;11.90;99.90;;;;;;5030781;28;20048;-71
2022/10/26 00:04:26;;;;;;;1.00;1.00;;;11.90;99.90;;;;;;5027878;28;20110;-71
2022/10/26 00:06:51;;;;;;;1.57;1.47;;;12.00;99.90;;;;;;5029366;28;20053;-72
2022/10/26 00:09:17;;;;;;;2.43;2.10;;;12.50;99.90;;;;;;5030631;28;20029;-72
2022/10/26 00:11:43;;;;;;;1.13;1.03;;;11.80;99.90;;;;;;5028784;28;20033;-72
2022/10/26 00:14:08;;;;;;;1.40;1.30;;;11.90;99.90;;;;;;5029108;28;20026;-71
2022/10/26 00:16:34;;;;;;;2.40;2.20;;;11.90;99.90;;;;;;5030713;28;20042;-71
2022/10/26 00:18:59;;;;;;;0.87;0.87;;;11.90;99.90;;;;;;5029855;28;20034;-71
2022/10/26 00:21:25;;;;;;;0.93;0.73;;;11.90;99.90;;;;;;5030474;28;20149;-72
2022/10/26 00:23:50;;;;;;;0.50;0.50;;;11.80;99.90;;;;;;5029256;28;20091;-71
2022/10/26 00:26:16;;;;;;;1.10;1.07;;;11.90;99.90;;;;;;5031610;28;20021;-71
2022/10/26 00:28:41;;;;;;;0.43;0.43;;;11.80;99.90;;;;;;5029519;28;20064;-71
2022/10/26 00:31:11;;;;;;;0.80;0.80;;;11.80;99.90;;;;;;5029371;28;20038;-71
2022/10/26 00:33:37;;;;;;;0.75;0.75;;;11.90;99.90;;;;;;5029808;28;20025;-71
2022/10/26 00:36:03;;;;;;;0.73;0.73;;;11.80;99.90;;;;;;5031360;28;20034;-70
2022/10/26 00:38:29;;;;;;;0.90;0.90;;;11.80;99.90;;;;;;5030211;28;20717;-70
2022/10/26 00:40:55;;;;;;;1.07;1.07;;;11.80;99.90;;;;;;5031142;28;20092;-71
2022/10/26 00:43:20;;;;;;;2.37;1.23;;;11.80;99.90;;;;;;5030176;28;20272;-72
2022/10/26 00:45:48;;;;;;;1.30;1.20;;;11.90;99.90;;;;;;5031157;28;20040;-70
2022/10/26 00:48:19;;;;;;;1.63;1.52;;;11.80;99.90;;;;;;5029212;28;20528;-71
2022/10/26 00:50:47;;;;;;;0.88;0.88;;;11.80;99.90;;;;;;5030058;28;20121;-71
2022/10/26 00:53:12;;;;;;;1.60;1.50;;;11.80;99.90;;;;;;5030189;28;20455;-71
2022/10/26 00:55:43;;;;;;;0.77;0.77;;;11.80;99.90;;;;;;5028534;28;20148;-71
2022/10/26 00:58:09;;;;;;;0.98;0.98;;;11.80;99.90;;;;;;5029599;28;20033;-71
2022/10/26 01:00:35;;;;;;;1.13;0.95;;;11.80;99.90;;;;;;5030709;28;20036;-71
2022/10/26 01:03:05;;;;;;;1.03;1.03;;;11.80;99.90;;;;;;5027654;28;20033;-71
2022/10/26 01:05:32;;;;;;;1.65;1.55;;;11.90;99.90;;;;;;5030180;28;20048;-71
2022/10/26 01:07:57;;;;;;;;;;;11.80;99.90;;;;;;5031045;28;20296;-71
2022/10/26 01:10:25;;;;;;;2.17;1.60;;;11.90;99.90;;;;;;5028838;28;20337;-70
2022/10/26 01:12:53;;;;;;;3.40;1.30;;;11.80;99.90;;;;;;5030153;28;20104;-71
2022/10/26 01:15:21;;;;;;;0.50;0.50;;;11.80;99.90;;;;;;5028621;28;20033;-71
2022/10/26 01:17:56;;;;;;;1.60;1.50;;;11.90;99.90;;;;;;5029737;28;20386;-71
2022/10/26 01:20:57;;;;;;;1.17;1.10;;;11.90;99.90;;;;;;5031407;28;20412;-70
2022/10/26 01:23:23;;;;;;;0.80;0.75;;;11.90;99.90;;;;;;5017358;28;20044;-71
2022/10/26 01:26:17;;;;;;;0.97;0.97;;;11.90;99.90;;;;;;5029361;28;20469;-71
2022/10/26 01:29:06;;;;;;;1.00;0.95;;;12.60;99.90;;;;;;5032165;28;20077;-71
2022/10/26 01:31:48;;;;;;;1.05;1.05;;;12.00;99.90;;;;;;5028826;28;20029;-72
2022/10/26 01:34:26;;;;;;;0.30;0.30;;;12.00;99.90;;;;;;5038556;28;20025;-71
2022/10/26 01:36:56;;;;;;;0.43;0.43;;;12.00;99.90;;;;;;5011040;28;20125;-71
2022/10/26 01:39:28;;;;;;;2.08;1.08;;;12.00;99.90;;;;;;5029722;28;20368;-71
2022/10/26 01:42:00;;;;;;;1.10;1.00;;;12.00;99.90;;;;;;5027429;28;21071;-71
2022/10/26 01:44:31;;;;;;;1.17;1.10;;;11.90;99.90;;;;;;5030763;28;20021;-71
2022/10/26 01:46:59;;;;;;;0.95;0.95;;;11.90;99.90;;;;;;5029357;28;20034;-71
2022/10/26 01:49:29;;;;;;;1.60;1.50;;;11.90;99.90;;;;;;5029736;28;20025;-71
2022/10/26 01:51:54;;;;;;;3.00;1.13;;;11.90;99.90;;;;;;5028349;28;20041;-70
2022/10/26 01:54:20;;;;;;;1.63;1.53;;;12.00;99.90;;;;;;5028060;28;20421;-72
2022/10/26 01:56:58;;;;;;;0.80;0.80;;;11.90;99.90;;;;;;5029383;28;20025;-70
2022/10/26 02:00:00;;;;;;;1.83;0.93;;;12.00;99.90;;;;;;5022258;28;20030;-70
2022/10/26 02:02:47;;;;;;;0.63;0.63;;;12.00;99.90;;;;;;5028630;28;20036;-72
2022/10/26 02:05:34;;;;;;;2.08;1.98;;;11.90;99.90;;;;;;5028045;28;20025;-70
2022/10/26 02:08:06;;;;;;;0.50;0.50;;;11.90;99.90;;;;;;5017282;28;20140;-72
2022/10/26 02:10:32;;;;;;;0.90;0.90;;;11.90;99.90;;;;;;5032295;28;20049;-71
2022/10/26 02:13:06;;;;;;;0.73;0.73;;;11.90;99.90;;;;;;5033058;28;20026;-72
2022/10/26 02:15:53;;;;;;;0.90;0.90;;;11.90;99.90;;;;;;5032405;28;20033;-71
2022/10/26 02:18:25;;;;;;;0.65;0.65;;;11.90;99.90;;;;;;5031981;28;20045;-70
2022/10/26 02:20:53;;;;;;;1.50;1.40;;;11.90;99.90;;;;;;5033142;28;20516;-71
2022/10/26 02:23:22;;;;;;;1.15;0.98;;;11.90;99.90;;;;;;5031828;28;20026;-71
2022/10/26 02:25:54;;;;;;;1.38;1.27;;;11.90;99.90;;;;;;5032939;28;20045;-71
2022/10/26 02:28:26;;;;;;;1.58;1.48;;;11.80;99.90;;;;;;5032263;28;20453;-71
2022/10/26 02:30:54;;;;;;;1.20;1.10;;;11.90;99.90;;;;;;5032884;28;20030;-71
2022/10/26 02:33:21;;;;;;;0.88;0.88;;;11.90;99.90;;;;;;5031147;28;20114;-71
2022/10/26 02:35:51;;;;;;;1.42;1.33;;;11.80;99.90;;;;;;5032692;28;20041;-71
2022/10/26 02:38:19;;;;;;;1.05;1.00;;;11.90;99.90;;;;;;5031919;28;20025;-70
2022/10/26 02:40:47;;;;;;;0.77;0.77;;;11.90;99.90;;;;;;5033732;28;20111;-71
2022/10/26 02:43:20;;;;;;;1.15;1.15;;;11.90;99.90;;;;;;5033945;28;20113;-72
2022/10/26 02:45:52;;;;;;;1.92;1.63;;;11.90;99.90;;;;;;5033514;28;20397;-71
2022/10/26 02:48:18;;;;;;;1.42;1.33;;;11.80;99.90;;;;;;5033274;28;20045;-70
2022/10/26 02:50:53;;;;;;;0.82;0.82;;;11.90;99.90;;;;;;5033572;28;20044;-69
2022/10/26 02:53:26;;;;;;;0.52;0.52;;;11.90;99.90;;;;;;5032340;28;20432;-70
2022/10/26 02:55:52;;;;;;;1.70;1.60;;;11.90;99.90;;;;;;5030567;28;20310;-71
2022/10/26 02:58:27;;;;;;;1.80;1.10;;;11.80;99.90;;;;;;5031863;28;20098;-72
2022/10/26 03:00:53;;;;;;;0.90;0.90;;;11.90;99.90;;;;;;5033156;28;20026;-71
2022/10/26 03:03:19;;;;;;;1.20;1.08;;;11.80;99.90;;;;;;5031981;28;20033;-71
2022/10/26 03:05:45;;;;;;;0.75;0.75;;;11.90;99.90;;;;;;5030386;28;20107;-71
2022/10/26 03:08:11;;;;;;;2.63;2.10;;;11.90;99.90;;;;;;5031319;28;20056;-72
2022/10/26 03:10:41;;;;;;;1.20;1.17;;;11.90;99.90;;;;;;5030575;28;20029;-71
2022/10/26 03:13:08;;;;;;;0.45;0.45;;;11.90;99.90;;;;;;5031245;28;20029;-72
2022/10/26 03:15:33;;;;;;;;;;;11.90;99.90;;;;;;5032084;28;20511;-71
2022/10/26 03:17:59;;;;;;;2.60;1.55;;;11.90;99.90;;;;;;5030430;28;19905;-71
2022/10/26 03:20:25;;;;;;;0.40;0.40;;;11.90;99.90;;;;;;5031974;28;20171;-69
2022/10/26 03:22:50;;;;;;;2.53;2.33;;;12.00;99.90;;;;;;5030581;28;20049;-71
2022/10/26 03:25:16;;;;;;;1.07;0.97;;;11.80;99.90;;;;;;5033389;28;20040;-71
2022/10/26 03:27:42;;;;;;;1.60;1.50;;;11.90;99.90;;;;;;5030169;28;20080;-71
2022/10/26 03:30:08;;;;;;;2.00;1.13;;;12.00;99.90;;;;;;5029439;28;20245;-70
2022/10/26 03:32:33;;;;;;;1.05;1.02;;;11.90;99.90;;;;;;5031062;28;20060;-70
2022/10/26 03:34:59;;;;;;;2.07;1.43;;;11.90;99.90;;;;;;5033039;28;20045;-72
2022/10/26 03:37:25;;;;;;;3.67;3.20;;;12.10;99.90;;;;;;5030969;28;20041;-71
2022/10/26 03:39:50;;;;;;;0.97;0.97;;;12.00;99.90;;;;;;5029590;28;20087;-73
2022/10/26 03:42:16;;;;;;;0.50;0.50;;;12.00;99.90;;;;;;5031696;28;20477;-72
2022/10/26 03:44:42;;;;;;;0.67;0.67;;;12.00;99.90;;;;;;5032028;28;20354;-71
2022/10/26 03:47:07;;;;;;;0.97;0.97;;;12.00;99.90;;;;;;5031766;28;20084;-72
2022/10/26 03:49:33;;;;;;;0.53;0.53;;;12.90;99.90;;;;;;5031669;28;20040;-72
2022/10/26 03:51:59;;;;;;;0.70;0.70;;;12.00;99.90;;;;;;5028284;28;20037;-71
2022/10/26 03:54:24;;;;;;;1.27;1.20;;;12.00;99.90;;;;;;5030019;28;20409;-72
2022/10/26 03:56:51;;;;;;;0.40;0.40;;;12.00;99.90;;;;;;5030518;28;20128;-70
2022/10/26 03:59:17;;;;;;;0.43;0.43;;;12.00;99.90;;;;;;5032430;28;20037;-71
2022/10/26 04:01:43;;;;;;;0.67;0.67;;;12.00;99.90;;;;;;5029044;28;20082;-71
2022/10/26 04:04:08;;;;;;;2.83;2.47;;;11.90;99.90;;;;;;5031083;28;20096;-70
2022/10/26 04:06:34;;;;;;;1.60;1.50;;;12.00;99.90;;;;;;5030713;28;20041;-70
2022/10/26 04:09:01;;;;;;;0.70;0.70;;;12.00;99.90;;;;;;5029931;28;20017;-72
2022/10/26 04:11:28;;;;;;;0.63;0.43;;;12.00;99.90;;;;;;5030066;28;20481;-72
2022/10/26 04:13:54;;;;;;;1.83;1.70;;;12.00;99.90;;;;;;5031127;28;20037;-70
2022/10/26 04:16:20;;;;;;;0.65;0.65;;;12.00;99.90;;;;;;5031786;28;20131;-71
2022/10/26 04:18:45;;;;;;;0.50;0.50;;;12.10;99.90;;;;;;5030305;28;20065;-71
2022/10/26 04:21:11;;;;;;;0.53;0.53;;;12.00;99.90;;;;;;5029773;28;21084;-71
2022/10/26 04:23:37;;;;;;;0.77;0.77;;;11.90;99.90;;;;;;5029409;28;20047;-71
2022/10/26 04:26:04;;;;;;;0.73;0.73;;;11.90;99.90;;;;;;5029951;28;20072;-71
2022/10/26 04:28:30;;;;;;;1.17;1.08;;;12.00;99.90;;;;;;5030861;28;20029;-72
2022/10/26 04:30:56;;;;;;;0.67;0.67;;;11.90;99.90;;;;;;5030161;28;20125;-71
2022/10/26 04:33:21;;;;;;;0.30;0.30;;;12.00;99.90;;;;;;5030712;28;20384;-71
2022/10/26 04:35:47;;;;;;;0.43;0.43;;;11.90;99.90;;;;;;5031538;28;20388;-70
2022/10/26 04:38:13;;;;;;;1.23;1.17;;;11.90;99.90;;;;;;5028591;28;20451;-71
2022/10/26 04:40:38;;;;;;;1.47;1.37;;;12.00;99.90;;;;;;5030201;28;20069;-71
2022/10/26 04:43:04;;;;;;;1.20;1.17;;;12.00;99.90;;;;;;5028982;28;20570;-71
2022/10/26 04:45:30;;;;;;;0.70;0.70;;;12.00;99.90;;;;;;5031150;28;20438;-72
2022/10/26 04:48:06;;;;;;;0.43;0.43;;;11.90;99.90;;;;;;5028561;28;20042;-71
2022/10/26 04:50:32;;;;;;;1.77;1.67;;;12.00;99.90;;;;;;5013122;28;20081;-70
2022/10/26 04:52:58;;;;;;;1.23;1.13;;;12.10;99.90;;;;;;5028844;28;20415;-70
2022/10/26 04:55:24;;;;;;;1.17;1.07;;;12.00;99.90;;;;;;5031727;28;20039;-71
2022/10/26 04:57:49;;;;;;;0.83;0.83;;;12.00;99.90;;;;;;5029346;28;20037;-72
2022/10/26 05:00:15;;;;;;;0.50;0.50;;;12.00;99.90;;;;;;5029766;28;20428;-72
2022/10/26 05:02:40;;;;;;;1.97;1.73;;;12.00;99.90;;;;;;5026515;28;20109;-71
2022/10/26 05:05:06;;;;;;;0.73;0.73;;;12.20;99.90;;;;;;5031217;28;20025;-71
2022/10/26 05:07:32;;;;;;;0.87;0.87;;;12.90;99.90;;;;;;5029261;28;20034;-72
2022/10/26 05:09:57;;;;;;;1.10;1.00;;;12.00;99.90;;;;;;5028473;28;20021;-70
2022/10/26 05:12:23;;;;;;;0.63;0.63;;;12.10;99.90;;;;;;5029311;28;20116;-71
2022/10/26 05:14:49;;;;;;;2.73;2.17;;;12.10;99.90;;;;;;5028719;28;20543;-71
2022/10/26 05:17:14;;;;;;;0.50;0.50;;;11.90;99.90;;;;;;5029529;28;20037;-72
2022/10/26 05:19:40;;;;;;;0.80;0.80;;;12.00;99.90;;;;;;5029774;28;20040;-72
2022/10/26 05:22:05;;;;;;;0.60;0.60;;;12.10;99.90;;;;;;5028937;28;20492;-71
2022/10/26 05:24:31;;;;;;;3.70;1.33;;;12.10;99.90;;;;;;5029081;28;20107;-71
2022/10/26 05:26:56;;;;;;;0.50;0.50;;;12.10;99.90;;;;;;5029253;28;20044;-71
2022/10/26 05:29:22;;;;;;;0.30;0.30;;;12.10;99.90;;;;;;5027969;28;20037;-71
2022/10/26 05:31:48;;;;;;;2.23;2.13;;;12.00;99.90;;;;;;5028553;28;20515;-75
2022/10/26 05:34:13;;;;;;;0.63;0.63;;;12.00;99.90;;;;;;5027930;28;20041;-72
2022/10/26 05:36:39;;;;;;;0.70;0.70;;;12.10;99.90;;;;;;5029482;28;20030;-71
2022/10/26 05:39:04;;;;;;;0.80;0.80;;;12.00;99.90;;;;;;5030671;28;20491;-72
2022/10/26 05:41:30;;;;;;;0.60;0.60;;;12.10;99.90;;;;;;5029646;28;20030;-70
2022/10/26 05:43:56;;;;;;;0.40;0.40;;;12.10;99.90;;;;;;5032000;28;20420;-71
2022/10/26 05:46:21;;;;;;;0.83;0.83;;;12.20;99.90;;;;;;5032968;28;20104;-71
2022/10/26 05:48:47;;;;;;;2.90;1.80;;;12.10;99.90;;;;;;5033585;28;20068;-72
2022/10/26 05:51:13;;;;;;;1.73;1.50;;;12.20;99.90;;;;;;5032669;28;20036;-72
2022/10/26 05:53:38;;;;;;;1.30;1.20;;;12.30;99.90;;;;;;5033405;28;20477;-73
2022/10/26 05:56:18;;;;;;;0.77;0.77;;;12.30;99.90;;;;;;5032699;28;20037;-73
2022/10/26 05:58:45;;;;;;;1.02;0.98;;;12.40;99.90;;;;;;5033419;28;20032;-72
2022/10/26 06:01:28;;;;;;;1.05;1.00;;;12.30;99.90;;;;;;5033476;28;20521;-71
2022/10/26 06:04:29;;;;;;;0.50;0.50;;;12.30;99.90;;;;;;5029959;28;20022;-71
2022/10/26 06:06:56;;;;;;;1.35;1.25;;;12.70;99.90;;;;;;5020804;28;20026;-71
2022/10/26 06:09:22;;;;;;;0.75;0.75;;;12.30;99.90;;;;;;5032814;28;20029;-72
2022/10/26 06:11:48;;;;;;;0.52;0.52;;;12.40;99.90;;;;;;5032346;28;20044;-71
2022/10/26 06:14:14;;;;;;;0.50;0.50;;;12.40;99.90;;;;;;5031304;28;20028;-72
2022/10/26 06:17:10;;;;;;;0.40;0.40;;;12.40;99.90;;;;;;5033074;28;20381;-72
2022/10/26 06:19:46;;;;;;;1.15;0.75;;;12.40;99.90;;;;;;5033331;28;20033;-72
2022/10/26 06:22:36;;;;;;;0.65;0.65;;;12.40;99.90;;;;;;5031981;28;20050;-72
2022/10/26 06:25:26;;;;;;;0.80;0.80;;;12.50;99.90;;;;;;5034362;28;20084;-72
2022/10/26 06:27:57;;;;;;;0.98;0.98;;;12.50;99.90;;;;;;5031608;28;20029;-71
2022/10/26 06:30:23;;;;;;;0.50;0.50;;;12.60;99.90;;;;;;5030739;28;20041;-72
2022/10/26 06:32:52;;;;;;;1.87;1.77;;;12.60;99.90;;;;;;5033179;28;20049;-71
2022/10/26 06:35:29;;;;;;;0.82;0.82;;;12.50;99.90;;;;;;5034156;28;20025;-71
2022/10/26 06:37:58;;;;;;;0.45;0.45;;;12.70;99.90;;;;;;5033490;28;20053;-74
2022/10/26 06:40:24;;;;;;;0.25;0.25;;;12.70;99.90;;;;;;5033090;28;20064;-71
2022/10/26 06:42:50;;;;;;;1.05;1.00;;;12.70;99.90;;;;;;5032893;28;20033;-70
2022/10/26 06:45:16;;;;;;;0.93;0.93;;;12.70;99.90;;;;;;5032424;28;20045;-70
2022/10/26 06:48:01;;;;;;;0.52;0.52;;;12.80;99.90;;;;;;5031491;28;20042;-71
2022/10/26 06:50:41;;;;;;;3.20;1.52;;;12.80;99.90;;;;;;5033121;28;20051;-70
2022/10/26 06:53:28;;;;;;;0.77;0.28;;;12.90;99.90;;;;;;5034543;28;20087;-71
2022/10/26 06:55:56;;;;;;;1.42;1.33;;;12.90;99.90;;;;;;5031295;28;20061;-71
2022/10/26 06:58:24;;;;;;;0.73;0.73;;;13.00;99.90;;;;;;5034881;28;20100;-72
2022/10/26 07:00:52;;;;;;;1.77;1.38;;;13.00;99.90;;;;;;5034225;28;20036;-73
2022/10/26 07:03:18;;;;;;;0.20;0.20;;;13.00;99.90;;;;;;5032382;28;20037;-71
2022/10/26 07:05:44;;;;;;;0.70;0.70;;;13.10;99.90;;;;;;5030180;28;20037;-71
2022/10/26 07:08:10;;;;;;;0.53;0.53;;;13.10;99.90;;;;;;5032599;28;20261;-71
2022/10/26 07:10:37;;;;;;;0.75;0.75;;;13.20;99.90;;;;;;5032108;28;20034;-72
2022/10/26 07:13:07;;;;;;;0.88;0.88;;;13.20;99.90;;;;;;5032219;28;20033;-71
2022/10/26 07:15:34;;;;;;;1.80;1.63;;;13.10;99.90;;;;;;5031330;28;20412;-71
2022/10/26 07:18:00;;;;;;;;;;;13.20;99.90;;;;;;5032516;28;20037;-71
2022/10/26 07:20:25;;;;;;;0.70;0.70;;;13.10;99.90;;;;;;5029823;28;19921;-72
2022/10/26 07:22:52;;;;;;;0.87;0.87;;;13.10;99.90;;;;;;5031130;28;20026;-71
2022/10/26 07:25:18;;;;;;;1.60;1.50;;;13.10;99.90;;;;;;5033168;28;20046;-71
2022/10/26 07:27:44;;;;;;;0.80;0.80;;;13.10;99.90;;;;;;5031068;28;20034;-72
2022/10/26 07:30:10;;;;;;;2.47;1.07;;;13.10;99.90;;;;;;5030654;28;20100;-71
2022/10/26 07:32:35;;;;;;;0.88;0.88;;;13.20;99.90;;;;;;5030254;28;20484;-71
2022/10/26 07:35:01;;;;;;;0.40;0.40;;;13.10;99.90;;;;;;5030047;28;20064;-71
2022/10/26 07:37:27;;;;;;;0.50;0.50;;;13.10;99.90;;;;;;5031834;28;20113;-72
2022/10/26 07:39:52;;;;;;;0.40;0.40;;;13.10;99.90;;;;;;5032653;28;20033;-71
2022/10/26 07:42:18;;;;;;;0.33;0.33;;;13.20;99.90;;;;;;5031331;28;20029;-70
2022/10/26 07:44:44;;;;;;;0.50;0.50;;;13.20;99.90;;;;;;5031007;28;20037;-71
2022/10/26 07:47:10;;;;;;;0.60;0.60;;;13.20;99.90;;;;;;5030750;28;20050;-71
2022/10/26 07:49:35;;;;;;;2.70;1.13;;;13.20;99.90;;;;;;5032560;28;20381;-71
2022/10/26 07:52:01;;;;;;;0.30;0.30;;;13.20;99.90;;;;;;5030306;28;20029;-71
2022/10/26 07:54:26;;;;;;;0.30;0.30;;;13.20;99.90;;;;;;5032340;28;20029;-71
2022/10/26 07:56:52;;;;;;;1.50;1.30;;;13.30;99.90;;;;;;5030911;28;20026;-72
2022/10/26 07:59:17;;;;;;;0.40;0.40;;;13.30;99.90;;;;;;5030245;28;20035;-73
2022/10/26 08:01:44;;;;;;;0.87;0.87;;;13.40;99.90;;;;;;5028562;28;20044;-71
2022/10/26 08:04:09;;;;;;;1.58;1.48;;;13.50;99.90;;;;;;5028959;28;21221;-72
2022/10/26 08:06:35;;;;;;;0.70;0.70;;;13.50;99.90;;;;;;5028991;28;20358;-71
2022/10/26 08:09:01;;;;;;;0.83;0.83;;;14.40;99.90;;;;;;5031959;28;20074;-72
2022/10/26 08:11:26;;;;;;;0.73;0.73;;;13.60;99.90;;;;;;5030455;28;20040;-72
2022/10/26 08:13:52;;;;;;;1.27;1.17;;;13.60;99.90;;;;;;5030963;28;20584;-73
2022/10/26 08:16:18;;;;;;;1.92;1.35;;;13.70;99.90;;;;;;5028519;28;20112;-71
2022/10/26 08:18:50;;;;;;;0.57;0.57;;;13.80;99.90;;;;;;5030828;28;20370;-71
2022/10/26 08:21:16;;;;;;;0.38;0.38;;;13.80;99.90;;;;;;5030609;28;20029;-72
2022/10/26 08:23:42;;;;;;;1.02;1.02;;;13.80;99.90;;;;;;5031208;28;20035;-71
2022/10/26 08:26:12;;;;;;;1.20;1.10;;;13.80;99.90;;;;;;5030406;28;20124;-72
2022/10/26 08:28:38;;;;;;;1.20;0.68;;;14.00;99.90;;;;;;5031519;28;20056;-72
2022/10/26 08:31:04;;;;;;;1.98;0.65;;;14.20;99.90;;;;;;5029467;28;20056;-71
2022/10/26 08:33:30;;;;;;;0.60;0.60;;;14.50;99.90;;;;;;5029097;28;20447;-72
2022/10/26 08:35:57;;;;;;;1.30;1.20;;;14.70;99.90;;;;;;5029648;28;20052;-72
2022/10/26 08:38:23;;;;;;;0.63;0.63;;;14.90;99.90;;;;;;5031736;28;20033;-73
2022/10/26 08:40:49;;;;;;;1.53;1.43;;;15.00;99.90;;;;;;5030005;28;20504;-73
2022/10/26 08:43:25;;;;;;;0.40;0.40;;;15.00;99.90;;;;;;5030505;28;20052;-73
2022/10/26 08:45:53;;;;;;;0.57;0.57;;;15.00;99.90;;;;;;5029101;28;20037;-72
2022/10/26 08:48:24;;;;;;;1.17;1.13;;;15.10;99.90;;;;;;5028524;28;20175;-72
2022/10/26 08:50:58;;;;;;;1.52;1.25;;;15.30;99.90;;;;;;5017126;28;20504;-72
2022/10/26 08:53:47;;;;;;;2.05;1.48;;;15.60;99.90;;;;;;5029229;28;20037;-71
2022/10/26 08:56:22;;;;;;;3.72;0.52;;;15.80;99.90;;;;;;5030110;28;20033;-73
2022/10/26 08:58:53;;;;;;;0.75;0.65;;;15.80;99.90;;;;;;5030069;28;20377;-72
2022/10/26 09:01:19;;;;;;;0.60;0.60;;;15.70;99.90;;;;;;5028421;28;20045;-71
2022/10/26 09:03:44;;;;;;;4.67;1.07;;;15.50;99.90;;;;;;5027418;28;20040;-71
2022/10/26 09:06:30;;;;;;;0.30;0.30;;;15.50;99.90;;;;;;5028005;28;20060;-70
2022/10/26 09:09:16;;;;;;;2.10;1.42;;;15.60;99.90;;;;;;5022204;28;20476;-72
2022/10/26 09:12:09;;;;;;;1.95;0.52;;;15.80;99.90;;;;;;5028552;28;20067;-71
2022/10/26 09:14:55;;;;;;;0.50;0.50;;;15.70;99.90;;;;;;5017539;28;20088;-70
2022/10/26 09:17:35;;;;;;;0.57;0.57;;;15.60;99.90;;;;;;5028183;28;20125;-71
2022/10/26 09:20:25;;;;;;;2.22;1.67;;;15.50;99.90;;;;;;5027500;28;20501;-71
2022/10/26 09:23:14;;;;;;;1.02;0.95;;;15.50;99.90;;;;;;5029838;28;20088;-71
2022/10/26 09:25:41;;;;;;;0.50;0.50;;;15.50;99.90;;;;;;5029582;28;20025;-71
2022/10/26 09:28:17;;;;;;;0.40;0.40;;;15.50;99.90;;;;;;5028380;28;20029;-70
2022/10/26 09:30:45;;;;;;;0.38;0.38;;;15.50;99.90;;;;;;5028822;28;20037;-71
2022/10/26 09:33:21;;;;;;;0.35;0.35;;;15.40;99.90;;;;;;5029514;28;20503;-70
2022/10/26 09:35:51;;;;;;;0.52;0.52;;;15.30;99.90;;;;;;5026840;28;20049;-70
2022/10/26 09:38:24;;;;;;;1.65;1.05;;;15.20;99.90;;;;;;5028706;28;20045;-70
2022/10/26 09:40:52;;;;;;;0.65;0.65;;;15.20;99.90;;;;;;5025491;28;20064;-71
2022/10/26 09:43:25;;;;;;;0.57;0.57;;;15.00;99.90;;;;;;5028469;28;20053;-71
2022/10/26 09:45:52;;;;;;;1.00;0.85;;;14.90;99.90;;;;;;5029102;28;20520;-71
2022/10/26 09:48:35;;;;;;;0.73;0.73;;;14.70;99.90;;;;;;5029182;28;20049;-70
2022/10/26 09:51:01;;;;;;;0.45;0.45;;;14.70;99.90;;;;;;5027546;28;20080;-71
2022/10/26 09:53:27;;;;;;;0.50;0.50;;;14.60;99.90;;;;;;5029291;28;20327;-71
2022/10/26 09:56:06;;;;;;;0.30;0.30;;;14.60;99.90;;;;;;5028980;28;20212;-72
2022/10/26 09:58:40;;;;;;;5.35;1.85;;;14.50;99.90;;;;;;5028318;28;20341;-72
2022/10/26 10:01:05;;;;;;;1.20;1.15;;;14.60;99.90;;;;;;5024266;28;20048;-72
2022/10/26 10:03:32;;;;;;;0.53;0.53;;;14.60;99.90;;;;;;5029692;28;20105;-71
2022/10/26 10:06:18;;;;;;;0.35;0.35;;;14.60;99.90;;;;;;5028891;28;20033;-72
2022/10/26 10:09:05;;;;;;;1.23;1.13;;;14.60;99.90;;;;;;5029431;28;20033;-71
2022/10/26 10:11:43;;;;;;;0.43;0.43;;;14.50;99.90;;;;;;5029141;28;20033;-71
2022/10/26 10:14:14;;;;;;;;;;;14.60;99.90;;;;;;5029857;28;20061;-71
2022/10/26 10:16:41;;;;;;;0.45;0.45;;;14.60;99.90;;;;;;5029234;28;19964;-71
2022/10/26 10:19:22;;;;;;;0.30;0.30;;;14.70;99.90;;;;;;5029114;28;20037;-70
2022/10/26 10:21:49;;;;;;;0.50;0.50;;;14.70;99.90;;;;;;5027620;28;20373;-71
2022/10/26 10:24:24;;;;;;;1.42;1.33;;;14.90;99.90;;;;;;5028001;28;20034;-72
2022/10/26 10:27:05;;;;;;;0.52;0.52;;;15.10;99.90;;;;;;5030303;28;20557;-71
2022/10/26 10:29:33;;;;;;;0.40;0.40;;;15.50;99.90;;;;;;5029226;28;20388;-72
2022/10/26 10:32:01;;;;;;;0.70;0.70;;;15.70;99.90;;;;;;5032518;28;20358;-72
2022/10/26 10:34:30;;;;;;;0.47;0.47;;;15.70;99.90;;;;;;5031557;28;20517;-72
2022/10/26 10:36:58;;;;;;;0.80;0.80;;;15.70;99.90;;;;;;5033361;28;20034;-71
2022/10/26 10:39:40;;;;;;;0.77;0.68;;;15.60;99.90;;;;;;5032749;28;20087;-71
2022/10/26 10:42:17;;;;;;;0.77;0.77;;;15.50;99.90;;;;;;5032381;28;20112;-71
2022/10/26 10:44:45;;;;;;;2.10;1.90;;;15.50;99.90;;;;;;5032085;28;20064;-70
2022/10/26 10:47:20;;;;;;;0.63;0.63;;;15.40;99.90;;;;;;5031305;28;20049;-72
2022/10/26 10:50:02;;;;;;;0.30;0.30;;;15.30;99.90;;;;;;5031792;28;20040;-70
2022/10/26 10:52:34;;;;;;;0.65;0.65;;;15.20;99.90;;;;;;5030184;28;20030;-72
2022/10/26 10:55:14;;;;;;;0.80;0.80;;;15.00;99.90;;;;;;5031793;28;20028;-70
2022/10/26 10:58:09;;;;;;;0.40;0.40;;;14.90;99.90;;;;;;5030600;28;20126;-71
2022/10/26 11:00:36;;;;;;;1.45;0.82;;;14.90;99.90;;;;;;5031378;28;20034;-71
2022/10/26 11:03:17;;;;;;;4.78;0.77;;;14.90;99.90;;;;;;5030712;28;20027;-71
2022/10/26 11:06:18;;;;;;;0.47;0.47;;;15.00;99.90;;;;;;5032803;28;20030;-71
2022/10/26 11:08:46;;;;;;;0.68;0.68;;;15.00;99.90;;;;;;5028122;28;20444;-71
2022/10/26 11:11:24;;;;;;;0.70;0.70;;;14.90;99.90;;;;;;5033036;28;20040;-70
2022/10/26 11:14:16;;;;;;;0.80;0.80;;;15.00;99.90;;;;;;5031415;28;20029;-71
2022/10/26 11:16:49;;;;;;;0.43;0.43;;;15.10;99.90;;;;;;5031515;28;20113;-70
2022/10/26 11:19:24;;;;;;;0.40;0.40;;;15.10;99.90;;;;;;5031773;28;20345;-71
2022/10/26 11:21:53;;;;;;;0.95;0.80;;;15.20;99.90;;;;;;5032562;28;20033;-71
2022/10/26 11:24:34;;;;;;;0.60;0.60;;;15.20;99.90;;;;;;5031241;28;20079;-71
2022/10/26 11:27:19;;;;;;;0.35;0.35;;;15.20;99.90;;;;;;5030538;28;20029;-71
2022/10/26 11:29:47;;;;;;;0.80;0.80;;;15.10;99.90;;;;;;5018278;28;20021;-71
2022/10/26 11:32:18;;;;;;;0.45;0.45;;;15.10;99.90;;;;;;5031832;28;20033;-72
2022/10/26 11:35:18;;;;;;;1.27;1.17;;;15.10;99.90;;;;;;5031415;28;20048;-71
2022/10/26 11:37:51;;;;;;;0.50;0.50;;;15.40;99.90;;;;;;5018663;28;20056;-71
2022/10/26 11:40:40;;;;;;;0.50;0.50;;;15.60;99.90;;;;;;5031652;28;20029;-70
2022/10/26 11:43:25;;;;;;;0.20;0.20;;;15.70;99.90;;;;;;5030405;28;20033;-70
2022/10/26 11:46:16;;;;;;;0.63;0.63;;;15.60;99.90;;;;;;5031037;28;20033;-71
2022/10/26 11:48:55;;;;;;;1.02;1.00;;;15.50;99.90;;;;;;5030900;28;20049;-71
2022/10/26 11:52:00;;;;;;;1.67;1.58;;;15.40;99.90;;;;;;5030889;28;20397;-68
2022/10/26 11:55:03;;;;;;;0.68;0.68;;;15.30;99.90;;;;;;5021621;28;20042;-68
2022/10/26 11:57:34;;;;;;;0.65;0.65;;;15.40;99.90;;;;;;5020574;28;20113;-67
2022/10/26 12:00:08;;;;;;;0.52;0.52;;;15.50;99.90;;;;;;5021140;28;20034;-68
2022/10/26 12:02:41;;;;;;;1.02;0.93;;;15.60;99.90;;;;;;5026794;28;20132;-68
2022/10/26 12:05:18;;;;;;;1.58;1.48;;;15.60;99.90;;;;;;5024817;28;20025;-68
2022/10/26 12:07:51;;;;;;;0.60;0.60;;;15.50;99.90;;;;;;5018094;28;20124;-67
2022/10/26 12:10:28;;;;;;;0.47;0.47;;;15.50;99.90;;;;;;5019272;28;20109;-67
2022/10/26 12:12:56;;;;;;;1.23;1.10;;;15.30;99.90;;;;;;5024284;28;20037;-67
2022/10/26 12:15:49;;;;;;;0.60;0.60;;;15.30;99.90;;;;;;5021923;28;20347;-67
2022/10/26 12:18:29;;;;;;;0.63;0.63;;;15.20;99.90;;;;;;5018760;28;20056;-67
2022/10/26 12:21:01;;;;;;;0.40;0.40;;;15.10;99.90;;;;;;5020378;28;20481;-68
2022/10/26 12:23:38;;;;;;;0.82;0.82;;;15.00;99.90;;;;;;5021041;28;20495;-69
2022/10/26 12:26:22;;;;;;;0.70;0.70;;;15.00;99.90;;;;;;5017539;28;20074;-67
2022/10/26 12:28:48;;;;;;;1.08;1.05;;;15.10;99.90;;;;;;5022548;28;20037;-68
2022/10/26 12:31:36;;;;;;;1.88;1.30;;;15.10;99.90;;;;;;5023772;28;20030;-67
2022/10/26 12:34:28;;;;;;;1.67;1.42;;;15.20;99.90;;;;;;5020348;28;20041;-67
2022/10/26 12:36:54;;;;;;;0.85;0.85;;;15.40;99.90;;;;;;5023541;28;20259;-67
2022/10/26 12:39:41;;;;;;;0.63;0.63;;;15.40;99.90;;;;;;5019173;28;20062;-67
2022/10/26 12:42:07;;;;;;;0.65;0.65;;;;;;;;;;5016461;28;20088;-68
2022/10/26 12:44:38;;;;;;;0.90;0.67;;;15.30;99.90;;;;;;5024217;28;20034;-67
2022/10/26 12:47:04;;;;;;;0.30;0.30;;;14.80;99.90;;;;;;5017431;28;20065;-68
2022/10/26 12:49:58;;;;;;;0.50;0.50;;;14.80;99.90;;;;;;5018683;28;20386;-68
2022/10/26 12:52:47;;;;;;;1.42;1.27;;;14.60;99.90;;;;;;5016614;28;20083;-68
2022/10/26 12:55:28;;;;;;;0.45;0.45;;;14.70;99.90;;;;;;5017004;28;20033;-67
2022/10/26 12:58:15;;;;;;;0.80;0.80;;;14.60;99.90;;;;;;5020378;28;20075;-66
2022/10/26 13:00:50;;;;;;;1.02;1.02;;;14.50;99.90;;;;;;5022839;28;20438;-68
2022/10/26 13:03:44;;;;;;;0.80;0.77;;;14.50;99.90;;;;;;5021575;28;20025;-69
2022/10/26 13:06:13;;;;;;;1.00;0.88;;;14.50;99.90;;;;;;5018594;28;20026;-68
2022/10/26 13:08:46;;;;;;;5.75;1.85;;;14.50;99.90;;;;;;5020373;28;20030;-68
2022/10/26 13:11:20;;;;;;;0.52;0.52;;;14.40;99.90;;;;;;5027685;28;20504;-68